sensor_id;sensor_type;location;lat;lon;timestamp;pressure;altitude;pressure_sealevel;temperature;humidity
20368;BME280;10343;52.402;9.796;2022-11-20T00:01:04;100743.31;;;0.36;68.15
20368;BME280;10343;52.402;9.796;2022-11-20T00:03:32;100746.84;;;0.40;68.14
20368;BME280;10343;52.402;9.796;2022-11-20T00:06:00;100736.41;;;0.40;68.04
20368;BME280;10343;52.402;9.796;2022-11-20T00:08:28;100738.91;;;0.33;68.37
20368;BME280;10343;52.402;9.796;2022-11-20T00:10:56;100737.13;;;0.31;68.84
20368;BME280;10343;52.402;9.796;2022-11-20T00:13:25;100739.75;;;0.32;68.50
20368;BME280;10343;52.402;9.796;2022-11-20T00:15:57;100742.03;;;0.15;68.95
20368;BME280;10343;52.402;9.796;2022-11-20T00:18:25;100744.09;;;-0.12;70.13
20368;BME280;10343;52.402;9.796;2022-11-20T00:20:53;100733.03;;;0.01;69.42
20368;BME280;10343;52.402;9.796;2022-11-20T00:23:21;100729.66;;;0.05;69.41
20368;BME280;10343;52.402;9.796;2022-11-20T00:25:48;100733.50;;;-0.19;69.56
20368;BME280;10343;52.402;9.796;2022-11-20T00:28:16;100731.38;;;0.03;69.33
20368;BME280;10343;52.402;9.796;2022-11-20T00:30:45;100738.25;;;0.01;68.91
20368;BME280;10343;52.402;9.796;2022-11-20T00:33:13;100733.03;;;0.01;68.62
20368;BME280;10343;52.402;9.796;2022-11-20T00:35:41;100735.56;;;-0.04;68.58
20368;BME280;10343;52.402;9.796;2022-11-20T00:38:09;100737.63;;;0.11;68.13
20368;BME280;10343;52.402;9.796;2022-11-20T00:40:36;100729.25;;;0.28;67.89
20368;BME280;10343;52.402;9.796;2022-11-20T00:43:04;100726.69;;;0.31;67.62
20368;BME280;10343;52.402;9.796;2022-11-20T00:45:32;100725.72;;;0.26;67.26
20368;BME280;10343;52.402;9.796;2022-11-20T00:48:01;100718.03;;;0.32;67.04
20368;BME280;10343;52.402;9.796;2022-11-20T00:50:29;100719.75;;;0.33;66.32
20368;BME280;10343;52.402;9.796;2022-11-20T00:52:57;100723.84;;;0.19;66.46
20368;BME280;10343;52.402;9.796;2022-11-20T00:55:24;100722.06;;;0.17;66.60
20368;BME280;10343;52.402;9.796;2022-11-20T00:57:52;100728.13;;;0.16;66.53
20368;BME280;10343;52.402;9.796;2022-11-20T01:00:20;100717.22;;;-0.08;66.99
20368;BME280;10343;52.402;9.796;2022-11-20T01:02:48;100718.09;;;-0.08;67.13
20368;BME280;10343;52.402;9.796;2022-11-20T01:05:17;100733.56;;;-0.15;66.96
20368;BME280;10343;52.402;9.796;2022-11-20T01:07:44;100731.78;;;-0.18;67.46
20368;BME280;10343;52.402;9.796;2022-11-20T01:10:12;100724.16;;;-0.48;68.58
20368;BME280;10343;52.402;9.796;2022-11-20T01:12:40;100728.13;;;-0.66;69.44
20368;BME280;10343;52.402;9.796;2022-11-20T01:15:08;100731.50;;;-0.70;69.72
20368;BME280;10343;52.402;9.796;2022-11-20T01:17:36;100718.56;;;-0.65;69.76
20368;BME280;10343;52.402;9.796;2022-11-20T01:20:05;100726.00;;;-0.44;69.61
20368;BME280;10343;52.402;9.796;2022-11-20T01:22:34;100715.72;;;-0.38;69.03
20368;BME280;10343;52.402;9.796;2022-11-20T01:25:02;100723.94;;;-0.18;69.07
20368;BME280;10343;52.402;9.796;2022-11-20T01:27:30;100713.66;;;-0.13;68.36
20368;BME280;10343;52.402;9.796;2022-11-20T01:29:58;100716.97;;;-0.21;68.29
20368;BME280;10343;52.402;9.796;2022-11-20T01:32:27;100712.44;;;-0.28;68.97
20368;BME280;10343;52.402;9.796;2022-11-20T01:34:54;100711.41;;;-0.36;69.00
20368;BME280;10343;52.402;9.796;2022-11-20T01:37:22;100709.22;;;-0.18;68.91
20368;BME280;10343;52.402;9.796;2022-11-20T01:39:51;100698.13;;;-0.07;68.60
20368;BME280;10343;52.402;9.796;2022-11-20T01:42:19;100702.63;;;0.00;68.51
20368;BME280;10343;52.402;9.796;2022-11-20T01:48:06;100691.59;;;-0.28;68.46
20368;BME280;10343;52.402;9.796;2022-11-20T01:50:34;100699.81;;;-0.11;67.82
20368;BME280;10343;52.402;9.796;2022-11-20T01:53:04;100682.19;;;0.23;67.82
20368;BME280;10343;52.402;9.796;2022-11-20T01:55:36;100681.50;;;0.32;67.23
20368;BME280;10343;52.402;9.796;2022-11-20T01:58:06;100686.22;;;0.53;66.33
20368;BME280;10343;52.402;9.796;2022-11-20T02:00:34;100675.72;;;0.48;65.75
20368;BME280;10343;52.402;9.796;2022-11-20T02:03:05;100674.41;;;0.74;65.32
20368;BME280;10343;52.402;9.796;2022-11-20T02:05:36;100671.88;;;0.78;64.92
20368;BME280;10343;52.402;9.796;2022-11-20T02:08:06;100676.66;;;0.54;65.41
20368;BME280;10343;52.402;9.796;2022-11-20T02:10:35;100674.38;;;0.71;65.45
20368;BME280;10343;52.402;9.796;2022-11-20T02:13:03;100676.19;;;0.76;65.14
20368;BME280;10343;52.402;9.796;2022-11-20T02:15:49;100679.63;;;0.74;65.00
20368;BME280;10343;52.402;9.796;2022-11-20T02:18:18;100672.19;;;0.97;64.78
20368;BME280;10343;52.402;9.796;2022-11-20T02:20:49;100671.59;;;1.15;64.33
20368;BME280;10343;52.402;9.796;2022-11-20T02:23:22;100669.25;;;1.35;63.87
20368;BME280;10343;52.402;9.796;2022-11-20T02:25:55;100666.72;;;1.40;63.43
20368;BME280;10343;52.402;9.796;2022-11-20T02:28:23;100667.69;;;1.46;62.95
20368;BME280;10343;52.402;9.796;2022-11-20T02:30:51;100655.34;;;1.36;63.03
20368;BME280;10343;52.402;9.796;2022-11-20T02:33:18;100658.97;;;1.46;63.04
20368;BME280;10343;52.402;9.796;2022-11-20T02:35:46;100661.66;;;1.50;63.08
20368;BME280;10343;52.402;9.796;2022-11-20T02:38:15;100659.91;;;1.51;63.02
20368;BME280;10343;52.402;9.796;2022-11-20T02:40:43;100657.47;;;1.65;62.81
20368;BME280;10343;52.402;9.796;2022-11-20T02:43:12;100643.28;;;1.47;62.88
20368;BME280;10343;52.402;9.796;2022-11-20T02:45:40;100646.81;;;1.49;62.81
20368;BME280;10343;52.402;9.796;2022-11-20T02:48:07;100654.69;;;1.51;62.96
20368;BME280;10343;52.402;9.796;2022-11-20T02:50:37;100646.97;;;1.60;62.85
20368;BME280;10343;52.402;9.796;2022-11-20T02:53:06;100645.31;;;1.65;62.35
20368;BME280;10343;52.402;9.796;2022-11-20T02:55:35;100645.31;;;1.65;62.50
20368;BME280;10343;52.402;9.796;2022-11-20T02:58:02;100640.06;;;1.65;62.38
20368;BME280;10343;52.402;9.796;2022-11-20T03:00:31;100635.69;;;1.63;62.45
20368;BME280;10343;52.402;9.796;2022-11-20T03:03:00;100646.81;;;1.49;62.97
20368;BME280;10343;52.402;9.796;2022-11-20T03:05:27;100641.81;;;1.68;62.81
20368;BME280;10343;52.402;9.796;2022-11-20T03:07:55;100647.13;;;1.71;62.37
20368;BME280;10343;52.402;9.796;2022-11-20T03:10:23;100636.59;;;1.68;62.58
20368;BME280;10343;52.402;9.796;2022-11-20T03:12:53;100637.22;;;1.47;63.11
20368;BME280;10343;52.402;9.796;2022-11-20T03:15:21;100640.13;;;1.70;62.40
20368;BME280;10343;52.402;9.796;2022-11-20T03:17:53;100636.56;;;1.65;62.73
20368;BME280;10343;52.402;9.796;2022-11-20T03:20:21;100640.94;;;1.64;62.53
20368;BME280;10343;52.402;9.796;2022-11-20T03:22:48;100634.06;;;1.74;62.41
20368;BME280;10343;52.402;9.796;2022-11-20T03:25:16;100627.88;;;1.66;62.28
20368;BME280;10343;52.402;9.796;2022-11-20T03:27:44;100626.78;;;1.48;63.02
20368;BME280;10343;52.402;9.796;2022-11-20T03:30:12;100624.09;;;1.42;63.37
20368;BME280;10343;52.402;9.796;2022-11-20T03:32:40;100625.69;;;1.31;63.42
20368;BME280;10343;52.402;9.796;2022-11-20T03:35:10;100619.59;;;1.33;63.59
20368;BME280;10343;52.402;9.796;2022-11-20T03:37:37;100627.47;;;1.35;63.31
20368;BME280;10343;52.402;9.796;2022-11-20T03:40:06;100625.69;;;1.31;64.03
20368;BME280;10343;52.402;9.796;2022-11-20T03:42:34;100618.59;;;1.24;64.17
20368;BME280;10343;52.402;9.796;2022-11-20T03:45:15;100620.16;;;1.09;64.17
20368;BME280;10343;52.402;9.796;2022-11-20T03:47:43;100613.84;;;0.95;64.81
20368;BME280;10343;52.402;9.796;2022-11-20T03:50:13;100611.16;;;0.89;65.28
20368;BME280;10343;52.402;9.796;2022-11-20T03:52:41;100619.97;;;0.97;65.09
20368;BME280;10343;52.402;9.796;2022-11-20T03:55:09;100618.31;;;1.02;65.03
20368;BME280;10343;52.402;9.796;2022-11-20T03:57:37;100621.84;;;1.07;65.03
20368;BME280;10343;52.402;9.796;2022-11-20T04:00:06;100613.28;;;1.14;64.38
20368;BME280;10343;52.402;9.796;2022-11-20T04:02:34;100612.00;;;0.88;65.04
20368;BME280;10343;52.402;9.796;2022-11-20T04:05:01;100604.34;;;1.00;65.44
20368;BME280;10343;52.402;9.796;2022-11-20T04:07:31;100604.16;;;0.88;65.82
20368;BME280;10343;52.402;9.796;2022-11-20T04:09:58;100600.56;;;0.81;66.22
20368;BME280;10343;52.402;9.796;2022-11-20T04:12:26;100595.56;;;0.95;65.81
20368;BME280;10343;52.402;9.796;2022-11-20T04:14:54;100598.06;;;0.86;66.01
20368;BME280;10343;52.402;9.796;2022-11-20T04:17:22;100601.75;;;0.46;67.40
20368;BME280;10343;52.402;9.796;2022-11-20T04:19:49;100593.13;;;0.50;67.77
20368;BME280;10343;52.402;9.796;2022-11-20T04:22:17;100591.78;;;0.74;66.90
20368;BME280;10343;52.402;9.796;2022-11-20T04:24:46;100594.28;;;0.66;66.94
20368;BME280;10343;52.402;9.796;2022-11-20T04:27:14;100592.94;;;0.93;66.21
20368;BME280;10343;52.402;9.796;2022-11-20T04:29:42;100592.88;;;0.89;66.17
20368;BME280;10343;52.402;9.796;2022-11-20T04:32:09;100581.94;;;1.14;65.23
20368;BME280;10343;52.402;9.796;2022-11-20T04:34:37;100595.66;;;1.01;64.60
20368;BME280;10343;52.402;9.796;2022-11-20T04:37:05;100594.72;;;0.97;65.25
20368;BME280;10343;52.402;9.796;2022-11-20T04:39:33;100594.75;;;0.99;65.09
20368;BME280;10343;52.402;9.796;2022-11-20T04:42:02;100592.53;;;0.67;65.05
20368;BME280;10343;52.402;9.796;2022-11-20T04:44:47;100591.66;;;0.65;65.20
20368;BME280;10343;52.402;9.796;2022-11-20T04:47:15;100590.72;;;0.61;64.87
20368;BME280;10343;52.402;9.796;2022-11-20T04:49:43;100602.31;;;0.80;65.11
20368;BME280;10343;52.402;9.796;2022-11-20T04:52:10;100594.06;;;1.12;64.56
20368;BME280;10343;52.402;9.796;2022-11-20T04:54:38;100596.91;;;1.28;63.70
20368;BME280;10343;52.402;9.796;2022-11-20T04:57:07;100594.19;;;1.18;63.59
20368;BME280;10343;52.402;9.796;2022-11-20T04:59:40;100599.78;;;1.49;63.00
20368;BME280;10343;52.402;9.796;2022-11-20T05:02:08;100597.28;;;1.57;62.53
20368;BME280;10343;52.402;9.796;2022-11-20T05:04:36;100598.31;;;1.70;62.05
20368;BME280;10343;52.402;9.796;2022-11-20T05:07:04;100593.03;;;1.67;61.89
20368;BME280;10343;52.402;9.796;2022-11-20T05:09:32;100596.56;;;1.72;62.21
20368;BME280;10343;52.402;9.796;2022-11-20T05:11:59;100598.41;;;1.79;62.13
20368;BME280;10343;52.402;9.796;2022-11-20T05:14:29;100593.94;;;1.72;62.16
20368;BME280;10343;52.402;9.796;2022-11-20T05:16:58;100589.53;;;1.65;63.32
20368;BME280;10343;52.402;9.796;2022-11-20T05:19:26;100583.59;;;1.80;63.17
20368;BME280;10343;52.402;9.796;2022-11-20T05:21:54;100585.88;;;1.50;63.70
20368;BME280;10343;52.402;9.796;2022-11-20T05:24:21;100584.25;;;1.59;63.97
20368;BME280;10343;52.402;9.796;2022-11-20T05:26:49;100575.50;;;1.60;63.80
20368;BME280;10343;52.402;9.796;2022-11-20T05:29:17;100583.53;;;1.74;63.63
20368;BME280;10343;52.402;9.796;2022-11-20T05:31:46;100575.63;;;1.69;63.38
20368;BME280;10343;52.402;9.796;2022-11-20T05:34:14;100585.50;;;1.95;63.13
20368;BME280;10343;52.402;9.796;2022-11-20T05:36:42;100579.75;;;1.50;63.65
20368;BME280;10343;52.402;9.796;2022-11-20T05:39:09;100571.25;;;1.66;63.59
20368;BME280;10343;52.402;9.796;2022-11-20T05:41:37;100575.72;;;1.75;63.44
20368;BME280;10343;52.402;9.796;2022-11-20T05:44:05;100572.41;;;1.90;62.69
20368;BME280;10343;52.402;9.796;2022-11-20T05:46:33;100573.53;;;1.40;62.75
20368;BME280;10343;52.402;9.796;2022-11-20T05:49:02;100570.91;;;1.39;63.40
20368;BME280;10343;52.402;9.796;2022-11-20T05:51:29;100566.09;;;1.02;63.94
20368;BME280;10343;52.402;9.796;2022-11-20T05:53:57;100567.97;;;1.12;64.35
20368;BME280;10343;52.402;9.796;2022-11-20T05:56:25;100570.47;;;1.05;64.41
20368;BME280;10343;52.402;9.796;2022-11-20T05:58:53;100561.06;;;1.16;64.88
20368;BME280;10343;52.402;9.796;2022-11-20T06:01:22;100554.69;;;1.66;63.70
20368;BME280;10343;52.402;9.796;2022-11-20T06:03:50;100551.22;;;1.67;62.80
20368;BME280;10343;52.402;9.796;2022-11-20T06:06:20;100553.72;;;1.56;63.58
20368;BME280;10343;52.402;9.796;2022-11-20T06:08:48;100554.84;;;1.81;62.74
20368;BME280;10343;52.402;9.796;2022-11-20T06:11:16;100555.69;;;1.79;62.51
20368;BME280;10343;52.402;9.796;2022-11-20T06:13:45;100558.94;;;1.56;62.08
20368;BME280;10343;52.402;9.796;2022-11-20T06:16:15;100560.06;;;1.78;62.38
20368;BME280;10343;52.402;9.796;2022-11-20T06:18:43;100550.41;;;1.73;61.90
20368;BME280;10343;52.402;9.796;2022-11-20T06:21:12;100550.88;;;1.38;62.97
20368;BME280;10343;52.402;9.796;2022-11-20T06:23:43;100547.34;;;1.34;63.51
20368;BME280;10343;52.402;9.796;2022-11-20T06:26:14;100562.38;;;1.52;63.11
20368;BME280;10343;52.402;9.796;2022-11-20T06:28:42;100565.16;;;1.66;62.84
20368;BME280;10343;52.402;9.796;2022-11-20T06:31:11;100552.78;;;1.51;62.73
20368;BME280;10343;52.402;9.796;2022-11-20T06:33:40;100561.44;;;1.48;62.97
20368;BME280;10343;52.402;9.796;2022-11-20T06:36:10;100554.69;;;1.66;62.83
20368;BME280;10343;52.402;9.796;2022-11-20T06:38:39;100552.78;;;1.52;63.51
20368;BME280;10343;52.402;9.796;2022-11-20T06:41:11;100552.88;;;1.59;63.76
20368;BME280;10343;52.402;9.796;2022-11-20T06:43:39;100555.44;;;1.56;63.22
20368;BME280;10343;52.402;9.796;2022-11-20T06:46:07;100542.97;;;1.31;64.60
20368;BME280;10343;52.402;9.796;2022-11-20T06:48:36;100546.41;;;1.27;64.09
20368;BME280;10343;52.402;9.796;2022-11-20T06:51:04;100559.63;;;1.41;63.58
20368;BME280;10343;52.402;9.796;2022-11-20T06:53:32;100548.50;;;1.56;63.48
20368;BME280;10343;52.402;9.796;2022-11-20T06:56:00;100546.84;;;1.66;62.38
20368;BME280;10343;52.402;9.796;2022-11-20T06:58:31;100558.81;;;1.47;62.42
20368;BME280;10343;52.402;9.796;2022-11-20T07:01:00;100551.41;;;1.85;61.59
20368;BME280;10343;52.402;9.796;2022-11-20T07:03:28;100544.50;;;1.89;61.64
20368;BME280;10343;52.402;9.796;2022-11-20T07:05:57;100534.66;;;1.66;61.63
20368;BME280;10343;52.402;9.796;2022-11-20T07:08:25;100529.13;;;1.40;61.96
20368;BME280;10343;52.402;9.796;2022-11-20T07:10:57;100538.56;;;1.29;63.22
20368;BME280;10343;52.402;9.796;2022-11-20T07:13:25;100537.06;;;1.46;62.42
20368;BME280;10343;52.402;9.796;2022-11-20T07:15:54;100533.50;;;1.41;61.99
20368;BME280;10343;52.402;9.796;2022-11-20T07:18:22;100535.13;;;1.30;62.58
20368;BME280;10343;52.402;9.796;2022-11-20T07:20:50;100538.56;;;1.29;62.20
20368;BME280;10343;52.402;9.796;2022-11-20T07:23:17;100537.00;;;1.43;62.75
20368;BME280;10343;52.402;9.796;2022-11-20T07:25:45;100536.25;;;1.52;62.54
20368;BME280;10343;52.402;9.796;2022-11-20T07:28:13;100538.34;;;1.10;62.60
20368;BME280;10343;52.402;9.796;2022-11-20T07:30:41;100539.50;;;1.31;62.72
20368;BME280;10343;52.402;9.796;2022-11-20T07:33:10;100535.13;;;1.30;62.95
20368;BME280;10343;52.402;9.796;2022-11-20T07:35:38;100532.03;;;1.68;62.73
20368;BME280;10343;52.402;9.796;2022-11-20T07:38:05;100537.06;;;1.46;62.51
20368;BME280;10343;52.402;9.796;2022-11-20T07:40:34;100535.41;;;1.55;62.49
20368;BME280;10343;52.402;9.796;2022-11-20T07:43:02;100537.13;;;1.56;62.92
20368;BME280;10343;52.402;9.796;2022-11-20T07:45:30;100546.22;;;1.89;62.18
20368;BME280;10343;52.402;9.796;2022-11-20T07:47:57;100539.50;;;2.15;61.71
20368;BME280;10343;52.402;9.796;2022-11-20T07:50:26;100550.59;;;1.93;61.24
20368;BME280;10343;52.402;9.796;2022-11-20T07:53:00;100554.47;;;1.47;61.95
20368;BME280;10343;52.402;9.796;2022-11-20T07:55:28;100546.53;;;1.38;63.02
20368;BME280;10343;52.402;9.796;2022-11-20T07:57:56;100545.81;;;1.51;62.99
20368;BME280;10343;52.402;9.796;2022-11-20T08:00:25;100545.94;;;1.64;63.34
20368;BME280;10343;52.402;9.796;2022-11-20T08:02:53;100541.31;;;1.37;63.54
20368;BME280;10343;52.402;9.796;2022-11-20T08:05:21;100543.50;;;1.78;63.05
20368;BME280;10343;52.402;9.796;2022-11-20T08:07:51;100547.16;;;1.95;62.30
20368;BME280;10343;52.402;9.796;2022-11-20T08:10:19;100541.31;;;2.23;61.83
20368;BME280;10343;52.402;9.796;2022-11-20T08:12:48;100539.59;;;2.25;61.01
20368;BME280;10343;52.402;9.796;2022-11-20T08:15:35;100529.97;;;2.22;60.82
20368;BME280;10343;52.402;9.796;2022-11-20T08:18:05;100537.84;;;2.27;60.57
20368;BME280;10343;52.402;9.796;2022-11-20T08:20:53;100547.22;;;2.03;61.17
20368;BME280;10343;52.402;9.796;2022-11-20T08:23:22;100551.16;;;1.61;62.48
20368;BME280;10343;52.402;9.796;2022-11-20T08:25:50;100550.13;;;1.46;62.34
20368;BME280;10343;52.402;9.796;2022-11-20T08:28:18;100553.22;;;1.93;62.02
20368;BME280;10343;52.402;9.796;2022-11-20T08:30:48;100560.31;;;2.03;60.70
20368;BME280;10343;52.402;9.796;2022-11-20T08:33:17;100558.41;;;1.86;61.00
20368;BME280;10343;52.402;9.796;2022-11-20T08:35:45;100554.97;;;1.94;60.48
20368;BME280;10343;52.402;9.796;2022-11-20T08:38:13;100541.38;;;2.32;60.07
20368;BME280;10343;52.402;9.796;2022-11-20T08:40:42;100540.25;;;2.05;60.54
20368;BME280;10343;52.402;9.796;2022-11-20T08:43:31;100541.16;;;2.06;59.97
20368;BME280;10343;52.402;9.796;2022-11-20T08:45:59;100530.69;;;2.04;60.25
20368;BME280;10343;52.402;9.796;2022-11-20T08:48:27;100534.47;;;2.37;59.25
20368;BME280;10343;52.402;9.796;2022-11-20T08:50:57;100536.53;;;2.84;57.85
20368;BME280;10343;52.402;9.796;2022-11-20T08:53:26;100529.66;;;3.02;57.03
20368;BME280;10343;52.402;9.796;2022-11-20T08:55:56;100540.34;;;3.54;56.57
20368;BME280;10343;52.402;9.796;2022-11-20T08:58:24;100537.78;;;3.65;55.50
20368;BME280;10343;52.402;9.796;2022-11-20T09:00:52;100537.81;;;3.98;54.39
20368;BME280;10343;52.402;9.796;2022-11-20T09:03:20;100531.72;;;4.14;54.01
20368;BME280;10343;52.402;9.796;2022-11-20T09:05:48;100531.72;;;4.11;54.01
20368;BME280;10343;52.402;9.796;2022-11-20T09:08:16;100538.72;;;4.15;53.57
20368;BME280;10343;52.402;9.796;2022-11-20T09:10:43;100538.72;;;4.21;54.20
20368;BME280;10343;52.402;9.796;2022-11-20T09:13:12;100534.34;;;4.17;52.99
20368;BME280;10343;52.402;9.796;2022-11-20T09:15:40;100534.34;;;3.99;54.34
20368;BME280;10343;52.402;9.796;2022-11-20T09:18:08;100527.34;;;3.98;54.62
20368;BME280;10343;52.402;9.796;2022-11-20T09:20:36;100519.31;;;3.36;55.55
20368;BME280;10343;52.402;9.796;2022-11-20T09:23:04;100512.34;;;3.43;56.52
20368;BME280;10343;52.402;9.796;2022-11-20T09:25:32;100506.94;;;3.04;57.19
20368;BME280;10343;52.402;9.796;2022-11-20T09:27:59;100504.56;;;3.78;55.92
20368;BME280;10343;52.402;9.796;2022-11-20T09:30:28;100513.38;;;4.19;55.60
20368;BME280;10343;52.402;9.796;2022-11-20T09:32:57;100508.00;;;4.98;52.60
20368;BME280;10343;52.402;9.796;2022-11-20T09:35:25;100510.25;;;5.84;51.69
20368;BME280;10343;52.402;9.796;2022-11-20T09:37:53;100519.78;;;7.02;48.85
20368;BME280;10343;52.402;9.796;2022-11-20T09:40:22;100510.44;;;8.08;45.94
20368;BME280;10343;52.402;9.796;2022-11-20T09:42:55;100508.38;;;9.26;43.26
20368;BME280;10343;52.402;9.796;2022-11-20T09:45:34;100501.22;;;9.72;42.00
20368;BME280;10343;52.402;9.796;2022-11-20T09:48:16;100505.19;;;10.27;40.75
20368;BME280;10343;52.402;9.796;2022-11-20T09:50:48;100504.13;;;10.70;38.32
20368;BME280;10343;52.402;9.796;2022-11-20T09:53:27;100501.44;;;11.35;38.36
20368;BME280;10343;52.402;9.796;2022-11-20T09:55:57;100496.66;;;11.48;37.26
20368;BME280;10343;52.402;9.796;2022-11-20T09:58:32;100497.75;;;11.70;37.08
20368;BME280;10343;52.402;9.796;2022-11-20T10:01:10;100484.88;;;11.86;36.66
20368;BME280;10343;52.402;9.796;2022-11-20T10:03:45;100500.63;;;12.21;35.96
20368;BME280;10343;52.402;9.796;2022-11-20T10:06:17;100496.03;;;12.26;35.68
20368;BME280;10343;52.402;9.796;2022-11-20T10:08:51;100491.50;;;12.28;35.11
20368;BME280;10343;52.402;9.796;2022-11-20T10:11:30;100489.34;;;11.84;35.89
20368;BME280;10343;52.402;9.796;2022-11-20T10:14:11;100491.28;;;11.19;36.84
20368;BME280;10343;52.402;9.796;2022-11-20T10:16:50;100498.50;;;10.83;37.41
20368;BME280;10343;52.402;9.796;2022-11-20T10:19:34;100500.91;;;10.22;38.62
20368;BME280;10343;52.402;9.796;2022-11-20T10:22:12;100499.63;;;9.64;39.41
20368;BME280;10343;52.402;9.796;2022-11-20T10:24:44;100491.25;;;9.44;39.59
20368;BME280;10343;52.402;9.796;2022-11-20T10:27:31;100493.78;;;9.05;40.46
20368;BME280;10343;52.402;9.796;2022-11-20T10:30:08;100493.88;;;9.01;40.74
20368;BME280;10343;52.402;9.796;2022-11-20T10:32:39;100493.03;;;8.51;40.83
20368;BME280;10343;52.402;9.796;2022-11-20T10:35:18;100487.03;;;8.40;41.82
20368;BME280;10343;52.402;9.796;2022-11-20T10:37:51;100496.31;;;8.65;41.42
20368;BME280;10343;52.402;9.796;2022-11-20T10:40:27;100481.56;;;7.99;42.33
20368;BME280;10343;52.402;9.796;2022-11-20T10:42:59;100483.94;;;7.55;42.78
20368;BME280;10343;52.402;9.796;2022-11-20T10:45:42;100476.72;;;7.68;43.03
20368;BME280;10343;52.402;9.796;2022-11-20T10:48:16;100472.34;;;7.69;42.78
20368;BME280;10343;52.402;9.796;2022-11-20T10:51:01;100474.13;;;7.65;42.90
20368;BME280;10343;52.402;9.796;2022-11-20T10:53:43;100478.03;;;7.98;42.92
20368;BME280;10343;52.402;9.796;2022-11-20T10:56:17;100468.91;;;8.70;42.30
20368;BME280;10343;52.402;9.796;2022-11-20T10:58:54;100473.16;;;9.22;41.04
20368;BME280;10343;52.402;9.796;2022-11-20T11:01:27;100460.19;;;9.10;40.71
20368;BME280;10343;52.402;9.796;2022-11-20T11:03:58;100456.16;;;8.92;41.48
20368;BME280;10343;52.402;9.796;2022-11-20T11:06:31;100462.28;;;8.95;41.49
20368;BME280;10343;52.402;9.796;2022-11-20T11:09:04;100450.84;;;10.11;39.32
20368;BME280;10343;52.402;9.796;2022-11-20T11:11:38;100444.34;;;10.92;37.23
20368;BME280;10343;52.402;9.796;2022-11-20T11:14:06;100441.88;;;11.15;36.59
20368;BME280;10343;52.402;9.796;2022-11-20T11:16:34;100449.56;;;9.91;38.00
20368;BME280;10343;52.402;9.796;2022-11-20T11:19:12;100444.22;;;9.16;39.21
20368;BME280;10343;52.402;9.796;2022-11-20T11:21:45;100443.97;;;8.34;40.47
20368;BME280;10343;52.402;9.796;2022-11-20T11:24:22;100444.06;;;7.75;41.96
20368;BME280;10343;52.402;9.796;2022-11-20T11:27:12;100447.34;;;7.32;41.96
20368;BME280;10343;52.402;9.796;2022-11-20T11:29:43;100446.97;;;6.91;43.17
20368;BME280;10343;52.402;9.796;2022-11-20T11:32:12;100442.66;;;6.84;43.21
20368;BME280;10343;52.402;9.796;2022-11-20T11:34:42;100441.25;;;6.52;43.31
20368;BME280;10343;52.402;9.796;2022-11-20T11:37:15;100448.34;;;6.44;43.67
20368;BME280;10343;52.402;9.796;2022-11-20T11:39:46;100452.00;;;6.31;43.61
20368;BME280;10343;52.402;9.796;2022-11-20T11:42:29;100444.09;;;6.34;44.55
20368;BME280;10343;52.402;9.796;2022-11-20T11:44:59;100450.31;;;6.23;45.24
20368;BME280;10343;52.402;9.796;2022-11-20T11:47:36;100446.91;;;6.12;44.93
20368;BME280;10343;52.402;9.796;2022-11-20T11:50:17;100444.38;;;5.98;45.89
20368;BME280;10343;52.402;9.796;2022-11-20T11:52:51;100454.84;;;6.04;45.48
20368;BME280;10343;52.402;9.796;2022-11-20T11:55:28;100446.94;;;6.09;45.99
20368;BME280;10343;52.402;9.796;2022-11-20T11:58:07;100452.28;;;5.97;45.78
20368;BME280;10343;52.402;9.796;2022-11-20T12:00:40;100442.75;;;5.77;47.16
20368;BME280;10343;52.402;9.796;2022-11-20T12:03:13;100437.59;;;5.66;48.41
20368;BME280;10343;52.402;9.796;2022-11-20T12:05:46;100432.19;;;5.82;48.60
20368;BME280;10343;52.402;9.796;2022-11-20T12:08:17;100433.75;;;6.10;47.76
20368;BME280;10343;52.402;9.796;2022-11-20T12:10:51;100430.16;;;6.19;47.66
20368;BME280;10343;52.402;9.796;2022-11-20T12:13:28;100426.63;;;6.23;47.03
20368;BME280;10343;52.402;9.796;2022-11-20T12:16:00;100414.94;;;6.49;46.80
20368;BME280;10343;52.402;9.796;2022-11-20T12:18:29;100419.31;;;6.52;46.50
20368;BME280;10343;52.402;9.796;2022-11-20T12:21:10;100420.00;;;6.68;45.92
20368;BME280;10343;52.402;9.796;2022-11-20T12:23:46;100430.53;;;6.68;45.55
20368;BME280;10343;52.402;9.796;2022-11-20T12:26:26;100419.88;;;6.80;45.33
20368;BME280;10343;52.402;9.796;2022-11-20T12:29:02;100414.56;;;6.83;44.69
20368;BME280;10343;52.402;9.796;2022-11-20T12:31:54;100406.59;;;6.88;44.22
20368;BME280;10343;52.402;9.796;2022-11-20T12:34:41;100407.50;;;6.85;44.64
20368;BME280;10343;52.402;9.796;2022-11-20T12:37:22;100397.56;;;7.07;44.94
20368;BME280;10343;52.402;9.796;2022-11-20T12:39:55;100400.28;;;7.03;44.13
20368;BME280;10343;52.402;9.796;2022-11-20T12:42:42;100403.22;;;7.43;43.67
20368;BME280;10343;52.402;9.796;2022-11-20T12:45:49;100399.91;;;7.87;43.00
20368;BME280;10343;52.402;9.796;2022-11-20T12:48:38;100404.81;;;7.55;42.39
20368;BME280;10343;52.402;9.796;2022-11-20T12:54:42;100400.16;;;7.73;42.59
20368;BME280;10343;52.402;9.796;2022-11-20T12:57:19;100399.34;;;7.68;42.14
20368;BME280;10343;52.402;9.796;2022-11-20T13:00:07;100395.94;;;7.59;42.64
20368;BME280;10343;52.402;9.796;2022-11-20T13:02:55;100388.25;;;7.45;42.38
20368;BME280;10343;52.402;9.796;2022-11-20T13:05:31;100397.84;;;7.51;42.61
20368;BME280;10343;52.402;9.796;2022-11-20T13:08:03;100397.19;;;7.35;42.65
20368;BME280;10343;52.402;9.796;2022-11-20T13:10:41;100389.72;;;7.04;43.66
20368;BME280;10343;52.402;9.796;2022-11-20T13:13:16;100390.59;;;7.03;43.92
20368;BME280;10343;52.402;9.796;2022-11-20T13:15:50;100393.00;;;7.20;43.77
20368;BME280;10343;52.402;9.796;2022-11-20T13:18:21;100399.22;;;7.14;43.34
20368;BME280;10343;52.402;9.796;2022-11-20T13:20:49;100400.13;;;7.15;43.27
20368;BME280;10343;52.402;9.796;2022-11-20T13:23:24;100398.75;;;6.83;43.53
20368;BME280;10343;52.402;9.796;2022-11-20T13:26:05;100401.50;;;6.74;44.36